Time;durP1;ratioP1;P1;durP2;ratioP2;P2;SDS_P1;SDS_P2;PMS_P1;PMS_P2;Temp;Humidity;BMP_temperature;BMP_pressure;BME280_temperature;BME280_humidity;BME280_pressure;Samples;Min_cycle;Max_cycle;Signal;HPM_P1;HPM_P2
2023/10/07 00:01:38;;;;;;;0.80;0.50;;;;;;;17.24;79.86;100963.94;6124952;23;20426;-68
2023/10/07 00:04:09;;;;;;;0.80;0.50;;;;;;;17.23;79.75;100959.56;6124925;23;20373;-69
2023/10/07 00:06:38;;;;;;;0.80;0.40;;;;;;;17.18;80.39;100964.94;6125168;23;20425;-69
2023/10/07 00:09:10;;;;;;;0.80;0.40;;;;;;;17.21;80.56;100961.69;6124894;23;20346;-68
2023/10/07 00:11:39;;;;;;;0.80;0.40;;;;;;;17.27;80.11;100952.53;6124988;23;20497;-68
2023/10/07 00:14:10;;;;;;;0.80;0.43;;;;;;;17.28;80.18;100963.19;6125757;23;20375;-69
2023/10/07 00:16:39;;;;;;;0.80;0.50;;;;;;;17.26;80.40;100948.97;6133031;23;20357;-69
2023/10/07 00:19:09;;;;;;;0.80;0.40;;;;;;;17.25;80.28;100946.47;6129487;23;20412;-69
2023/10/07 00:21:53;;;;;;;0.80;0.50;;;;;;;17.25;80.46;100949.19;6129688;23;20373;-69
2023/10/07 00:24:25;;;;;;;0.80;0.40;;;;;;;17.30;80.31;100954.75;6101322;23;20373;-70
2023/10/07 00:26:59;;;;;;;0.90;0.57;;;;;;;17.27;81.14;100944.31;6127918;23;20371;-69
2023/10/07 00:29:39;;;;;;;1.20;0.70;;;;;;;17.32;80.66;100941.69;6100522;23;20377;-67
2023/10/07 00:32:08;;;;;;;1.43;0.67;;;;;;;17.24;81.28;100933.84;6124752;23;20403;-68
2023/10/07 00:34:40;;;;;;;1.00;0.60;;;;;;;17.25;81.25;100919.09;6124895;23;20409;-69
2023/10/07 00:37:09;;;;;;;0.80;0.40;;;;;;;17.25;81.39;100921.84;6124704;23;20373;-68
2023/10/07 00:39:39;;;;;;;1.07;0.63;;;;;;;17.27;81.93;100919.72;6099627;23;20393;-70
2023/10/07 00:42:10;;;;;;;0.80;0.40;;;;;;;17.25;81.78;100919.94;6099534;23;20397;-68
2023/10/07 00:44:43;;;;;;;1.73;0.70;;;;;;;17.31;81.72;100929.06;6125762;23;20383;-68
2023/10/07 00:47:18;;;;;;;0.80;0.40;;;;;;;17.35;81.44;100924.78;6124402;23;20741;-69
2023/10/07 00:49:53;;;;;;;0.80;0.50;;;;;;;17.30;81.80;100919.22;6125396;23;20359;-69
2023/10/07 00:52:33;;;;;;;0.80;0.50;;;;;;;17.33;82.02;100927.75;6098628;23;20400;-66
2023/10/07 00:55:16;;;;;;;0.80;0.40;;;;;;;17.32;82.17;100919.81;6099018;23;20384;-66
2023/10/07 00:57:51;;;;;;;0.80;0.40;;;;;;;17.30;82.61;100924.69;6098631;23;20431;-69
2023/10/07 01:00:41;;;;;;;0.80;0.50;;;;;;;17.29;82.58;100912.91;6124722;23;20345;-67
2023/10/07 01:03:31;;;;;;;0.90;0.70;;;;;;;17.35;82.48;100919.28;6098980;23;20373;-69
2023/10/07 01:06:11;;;;;;;1.37;1.00;;;;;;;17.32;82.66;100897.91;6098679;23;20415;-69
2023/10/07 01:08:48;;;;;;;0.80;0.40;;;;;;;17.28;83.25;100904.97;6124473;23;20873;-68
2023/10/07 01:11:23;;;;;;;0.90;0.70;;;;;;;17.28;83.50;100916.72;6124593;23;20517;-68
2023/10/07 01:13:56;;;;;;;0.80;0.40;;;;;;;17.27;83.15;100919.72;6123776;23;20398;-68
2023/10/07 01:16:43;;;;;;;0.80;0.40;;;;;;;17.28;83.60;100913.16;6124329;23;20442;-68
2023/10/07 01:19:26;;;;;;;0.80;0.40;;;;;;;17.22;84.02;100914.97;6124386;23;20346;-68
2023/10/07 01:22:09;;;;;;;0.80;0.40;;;;;;;17.23;84.14;100913.06;6124111;23;20434;-70
2023/10/07 01:24:45;;;;;;;0.87;0.50;;;;;;;17.28;83.87;100911.22;6124587;23;20377;-67
2023/10/07 01:27:21;;;;;;;1.00;0.53;;;;;;;17.28;84.06;100910.44;6126341;23;20371;-69
2023/10/07 01:29:59;;;;;;;0.80;0.40;;;;;;;17.31;84.25;100901.72;6126430;23;20759;-68
2023/10/07 01:32:32;;;;;;;0.80;0.50;;;;;;;17.31;84.22;100902.56;6099881;23;20449;-68
2023/10/07 01:35:05;;;;;;;0.80;0.40;;;;;;;17.29;84.22;100903.88;6100152;23;20381;-67
2023/10/07 01:37:43;;;;;;;1.23;1.13;;;;;;;17.33;84.00;100894.13;6126328;23;20379;-67
2023/10/07 01:40:17;;;;;;;0.80;0.40;;;;;;;17.33;84.30;100894.91;6125971;23;20352;-69
2023/10/07 01:43:08;;;;;;;0.80;0.40;;;;;;;17.29;84.37;100885.56;6127401;23;20830;-68
2023/10/07 01:45:39;;;;;;;0.80;0.40;;;;;;;17.24;84.95;100890.09;6042686;23;20405;-68
2023/10/07 01:48:08;;;;;;;0.80;0.40;;;;;;;17.23;85.03;100878.31;6043111;23;20408;-69
2023/10/07 01:50:43;;;;;;;0.80;0.50;;;;;;;17.33;84.86;100881.25;6068128;23;20379;-69
2023/10/07 01:53:13;;;;;;;0.80;0.50;;;;;;;17.33;85.05;100883.19;6039996;23;20354;-68
2023/10/07 01:55:43;;;;;;;0.80;0.50;;;;;;;17.32;85.16;100886.97;6014243;23;20493;-69
2023/10/07 01:58:13;;;;;;;0.80;0.40;;;;;;;17.29;85.54;100879.25;6014619;23;20376;-68
2023/10/07 02:00:44;;;;;;;0.80;0.40;;;;;;;17.22;85.99;100886.78;6014109;23;20397;-69
2023/10/07 02:03:16;;;;;;;0.80;0.40;;;;;;;17.28;85.56;100874.88;6039866;23;20385;-69
2023/10/07 02:05:48;;;;;;;0.83;0.47;;;;;;;17.29;85.55;100871.03;6039569;23;20865;-69
2023/10/07 02:08:20;;;;;;;0.80;0.40;;;;;;;17.30;86.02;100873.53;6039485;23;20696;-68
2023/10/07 02:10:56;;;;;;;0.80;0.40;;;;;;;17.31;86.10;100857.97;6039524;23;20427;-67
2023/10/07 02:13:27;;;;;;;0.80;0.40;;;;;;;17.28;86.33;100869.41;6038642;23;20432;-70
2023/10/07 02:15:57;;;;;;;1.10;0.83;;;;;;;17.29;86.66;100876.50;6015456;23;20409;-67
2023/10/07 02:18:27;;;;;;;0.80;0.40;;;;;;;17.29;86.46;100865.56;6015301;23;20409;-70
2023/10/07 02:21:07;;;;;;;0.80;0.40;;;;;;;17.33;86.20;100866.75;6039523;23;20839;-68
2023/10/07 02:23:40;;;;;;;0.80;0.50;;;;;;;17.27;86.72;100863.09;6039857;23;20377;-68
2023/10/07 02:26:16;;;;;;;0.80;0.40;;;;;;;17.35;86.57;100859.13;6039931;23;20357;-69
2023/10/07 02:28:46;;;;;;;0.80;0.40;;;;;;;17.31;87.04;100863.44;6039818;23;20384;-68
2023/10/07 02:31:17;;;;;;;1.00;0.60;;;;;;;17.24;87.59;100841.69;6039176;23;20495;-68
2023/10/07 02:33:46;;;;;;;0.80;0.43;;;;;;;17.24;87.89;100851.81;6014087;23;20819;-69
2023/10/07 02:36:28;;;;;;;0.80;0.40;;;;;;;17.23;88.17;100855.66;6043527;23;20364;-68
2023/10/07 02:39:03;;;;;;;0.80;0.40;;;;;;;17.28;87.91;100851.06;6039121;23;20352;-70
2023/10/07 02:41:34;;;;;;;0.80;0.40;;;;;;;17.23;88.56;100848.25;6013394;23;20738;-67
2023/10/07 02:44:05;;;;;;;0.90;0.50;;;;;;;17.22;88.75;100851.25;6013236;23;20761;-68
2023/10/07 02:46:35;;;;;;;1.10;0.50;;;;;;;17.21;88.86;100853.16;6013459;23;20401;-69
2023/10/07 02:49:10;;;;;;;0.80;0.40;;;;;;;17.20;89.08;100862.41;6013388;23;20827;-69
2023/10/07 02:51:47;;;;;;;0.80;0.40;;;;;;;17.26;88.11;100850.50;6038869;23;20766;-69
2023/10/07 02:54:17;;;;;;;0.90;0.70;;;;;;;17.28;88.46;100864.75;6013345;23;20411;-70
2023/10/07 02:56:55;;;;;;;1.20;1.10;;;;;;;17.23;88.90;100863.84;6014213;23;20390;-70
2023/10/07 02:59:28;;;;;;;1.10;0.50;;;;;;;17.21;89.46;100849.56;6014178;23;20401;-68
2023/10/07 03:02:19;;;;;;;0.80;0.40;;;;;;;17.24;89.21;100851.81;6013695;23;20935;-68
2023/10/07 03:05:12;;;;;;;0.80;0.40;;;;;;;17.19;89.59;100857.19;6038815;23;20353;-70
2023/10/07 03:07:49;;;;;;;0.90;0.60;;;;;;;17.22;89.76;100846.59;6013511;23;20401;-68
2023/10/07 03:10:27;;;;;;;0.80;0.40;;;;;;;17.20;89.63;100845.19;6038464;23;20360;-69
2023/10/07 03:12:58;;;;;;;0.90;0.53;;;;;;;17.14;90.50;100841.53;6015876;23;20441;-68
2023/10/07 03:15:40;;;;;;;0.80;0.40;;;;;;;17.14;90.50;100843.41;6015613;23;20374;-68
2023/10/07 03:18:21;;;;;;;2.00;1.90;;;;;;;17.14;90.51;100835.22;6038918;23;20348;-68
2023/10/07 03:21:06;;;;;;;0.80;0.43;;;;;;;17.17;90.46;100842.94;6044933;23;20406;-68
2023/10/07 03:23:45;;;;;;;0.80;0.50;;;;;;;17.21;90.38;100844.94;6016522;23;20380;-67
2023/10/07 03:26:17;;;;;;;1.43;1.33;;;;;;;17.22;90.09;100845.78;6040034;23;20374;-69
2023/10/07 03:28:54;;;;;;;0.80;0.50;;;;;;;17.21;90.47;100852.31;6039701;23;20527;-68
2023/10/07 03:31:33;;;;;;;0.90;0.50;;;;;;;17.25;90.40;100856.22;6039755;23;20384;-69
2023/10/07 03:34:07;;;;;;;0.80;0.50;;;;;;;17.20;90.55;100856.13;6038874;23;20354;-66
2023/10/07 03:37:14;;;;;;;1.80;1.17;;;;;;;17.19;90.71;100849.81;6038862;23;20348;-68
2023/10/07 03:39:42;;;;;;;0.80;0.50;;;;;;;17.21;90.65;100847.69;6038541;23;20905;-68
2023/10/07 03:42:14;;;;;;;1.10;0.87;;;;;;;17.25;90.96;100846.09;6039534;23;20420;-70
2023/10/07 03:44:46;;;;;;;0.80;0.40;;;;;;;17.27;90.96;100840.41;6040284;23;20405;-69
2023/10/07 03:47:15;;;;;;;0.80;0.40;;;;;;;17.21;91.48;100841.38;6038674;23;20381;-68
2023/10/07 03:49:52;;;;;;;0.90;0.50;;;;;;;17.25;91.02;100837.91;6013150;23;20847;-69
2023/10/07 03:52:27;;;;;;;1.80;1.70;;;;;;;17.22;91.39;100838.41;6013175;23;20498;-69
2023/10/07 03:54:59;;;;;;;0.90;0.60;;;;;;;17.23;91.40;100842.78;6038361;23;20416;-67
2023/10/07 03:57:29;;;;;;;0.80;0.47;;;;;;;17.28;91.19;100842.06;6013622;23;20441;-69
2023/10/07 03:59:59;;;;;;;0.90;0.60;;;;;;;17.21;91.74;100853.16;6038963;23;20501;-69
2023/10/07 04:02:35;;;;;;;0.80;0.40;;;;;;;17.17;91.92;100845.69;6038365;23;20967;-68
2023/10/07 04:05:12;;;;;;;0.83;0.47;;;;;;;17.17;91.98;100853.88;6037964;23;20375;-68
2023/10/07 04:07:44;;;;;;;0.80;0.40;;;;;;;17.14;92.76;100854.34;6038078;23;20401;-68
2023/10/07 04:10:20;;;;;;;1.27;1.03;;;;;;;17.23;92.21;100861.13;6038388;23;20457;-69
2023/10/07 04:12:50;;;;;;;0.80;0.40;;;;;;;17.20;92.17;100858.84;6037758;23;20485;-68
2023/10/07 04:15:28;;;;;;;0.80;0.40;;;;;;;17.22;91.96;100859.44;6037862;23;20356;-67
2023/10/07 04:17:59;;;;;;;1.10;0.80;;;;;;;17.19;91.97;100855.28;6038371;23;20428;-69
2023/10/07 04:20:50;;;;;;;0.80;0.40;;;;;;;17.22;92.24;100859.44;6037816;23;20371;-69
2023/10/07 04:23:24;;;;;;;0.80;0.40;;;;;;;17.26;91.95;100860.59;6037727;23;20372;-67
2023/10/07 04:26:04;;;;;;;0.80;0.40;;;;;;;17.24;92.34;100860.00;6037867;23;20377;-68
2023/10/07 04:28:34;;;;;;;0.90;0.50;;;;;;;17.19;92.86;100868.13;6037600;23;20374;-68
2023/10/07 04:31:09;;;;;;;0.80;0.50;;;;;;;17.18;92.98;100855.56;6037785;23;20517;-68
2023/10/07 04:33:47;;;;;;;0.80;0.40;;;;;;;17.19;93.35;100851.72;6037866;23;20392;-67
2023/10/07 04:36:31;;;;;;;0.80;0.40;;;;;;;17.21;93.22;100852.31;6037758;23;20413;-69
2023/10/07 04:39:17;;;;;;;0.80;0.40;;;;;;;17.19;93.03;100838.88;6037956;23;20363;-70
2023/10/07 04:41:56;;;;;;;0.80;0.40;;;;;;;17.18;93.40;100844.63;6037455;23;20413;-69
2023/10/07 04:45:15;;;;;;;0.80;0.40;;;;;;;17.17;93.53;100841.03;6037693;23;20405;-67
2023/10/07 04:47:29;;;;;;;0.80;0.50;;;;;;;17.19;93.35;100848.97;6037331;23;20440;-68
2023/10/07 04:50:00;;;;;;;0.80;0.40;;;;;;;17.16;93.63;100839.38;6038194;23;20383;-71
2023/10/07 04:52:29;;;;;;;1.00;0.73;;;;;;;17.16;93.82;100841.28;6037380;23;20499;-68
2023/10/07 04:54:59;;;;;;;1.30;0.87;;;;;;;17.15;94.43;100834.97;6037586;23;20393;-69
2023/10/07 04:57:44;;;;;;;0.80;0.40;;;;;;;17.08;95.68;100826.13;6037696;23;20364;-68
2023/10/07 05:00:27;;;;;;;0.80;0.50;;;;;;;17.10;95.90;100834.91;6038858;23;20370;-69
2023/10/07 05:02:58;;;;;;;0.80;0.50;;;;;;;17.05;96.93;100831.22;6039325;23;20405;-68
2023/10/07 05:05:29;;;;;;;0.80;0.60;;;;;;;17.02;96.70;100826.28;6039528;23;20352;-66
2023/10/07 05:08:08;;;;;;;0.83;0.60;;;;;;;17.04;96.80;100827.66;6039705;23;20373;-69
2023/10/07 05:10:39;;;;;;;1.87;0.90;;;;;;;17.00;97.87;100826.50;6039659;23;20383;-68
2023/10/07 05:13:08;;;;;;;0.80;0.50;;;;;;;16.97;98.87;100823.44;6038918;23;20448;-68
2023/10/07 05:15:40;;;;;;;0.80;0.50;;;;;;;16.91;99.72;100825.25;6039058;23;20403;-70
2023/10/07 05:18:12;;;;;;;0.90;0.60;;;;;;;16.89;100.00;100830.94;6039795;23;20389;-69
2023/10/07 05:20:42;;;;;;;0.90;0.60;;;;;;;16.94;99.79;100835.72;6039356;23;20502;-67
2023/10/07 05:23:14;;;;;;;0.80;0.50;;;;;;;16.90;99.79;100835.34;6039734;23;20875;-68
2023/10/07 05:25:48;;;;;;;0.90;0.50;;;;;;;16.92;99.57;100832.38;6039201;23;20373;-69
2023/10/07 05:28:20;;;;;;;1.73;1.63;;;;;;;16.90;99.31;100845.44;6039311;23;20408;-68
2023/10/07 05:30:51;;;;;;;1.37;0.97;;;;;;;16.90;99.47;100845.44;6039685;23;20404;-69
2023/10/07 05:33:25;;;;;;;0.80;0.40;;;;;;;16.89;99.42;100844.63;6039717;23;20462;-68
2023/10/07 05:36:04;;;;;;;2.07;1.80;;;;;;;17.00;98.80;100825.69;6039659;23;20352;-67
2023/10/07 05:38:35;;;;;;;1.00;0.57;;;;;;;17.01;97.89;100830.91;6039989;23;20360;-68
2023/10/07 05:41:06;;;;;;;0.90;0.60;;;;;;;16.98;98.16;100836.03;6046536;23;20486;-70
2023/10/07 05:43:36;;;;;;;0.80;0.40;;;;;;;17.06;97.30;100832.91;6043166;23;20408;-68
2023/10/07 05:46:05;;;;;;;0.80;0.50;;;;;;;17.09;96.97;100835.16;6042633;23;20745;-69
2023/10/07 05:48:38;;;;;;;0.90;0.50;;;;;;;17.10;97.21;100840.38;6040752;23;20364;-68
2023/10/07 05:51:08;;;;;;;0.90;0.60;;;;;;;17.05;96.92;100834.81;6039640;23;20384;-68
2023/10/07 05:53:37;;;;;;;0.90;0.60;;;;;;;17.07;96.97;100842.78;6039041;23;20450;-69
2023/10/07 05:56:07;;;;;;;0.90;0.60;;;;;;;17.05;96.94;100836.69;6040018;23;20388;-68
2023/10/07 05:58:38;;;;;;;0.80;0.40;;;;;;;17.05;96.82;100842.16;6039332;23;20364;-68
2023/10/07 06:01:11;;;;;;;0.80;0.50;;;;;;;17.05;96.26;100844.91;6038840;23;20413;-66
2023/10/07 06:03:42;;;;;;;0.90;0.60;;;;;;;17.11;95.49;100844.75;6038780;23;20396;-69
2023/10/07 06:06:14;;;;;;;0.90;0.63;;;;;;;17.16;95.87;100838.56;6038772;23;20378;-69
2023/10/07 06:08:42;;;;;;;1.10;0.50;;;;;;;17.04;96.81;100837.81;6038727;23;20918;-68
2023/10/07 06:11:11;;;;;;;0.80;0.40;;;;;;;16.98;97.90;100852.44;6038341;23;20417;-69
2023/10/07 06:13:40;;;;;;;0.80;0.40;;;;;;;16.94;98.54;100857.59;6038464;23;20399;-68
2023/10/07 06:16:10;;;;;;;0.80;0.40;;;;;;;16.85;99.79;100859.84;6038956;23;20393;-69
2023/10/07 06:18:39;;;;;;;0.80;0.40;;;;;;;16.86;100.00;100866.97;6038383;23;20367;-69
2023/10/07 06:21:19;;;;;;;0.90;0.60;;;;;;;16.86;99.38;100866.97;6038956;23;20391;-69
2023/10/07 06:23:49;;;;;;;1.17;1.07;;;;;;;16.83;99.73;100877.59;6039224;23;20357;-66
2023/10/07 06:26:18;;;;;;;0.80;0.60;;;;;;;16.89;100.00;100874.69;6039851;23;20771;-67
2023/10/07 06:28:49;;;;;;;2.00;1.23;;;;;;;16.85;100.00;100878.16;6038805;23;20401;-69
2023/10/07 06:31:28;;;;;;;0.80;0.43;;;;;;;16.85;100.00;100875.41;6038533;23;20387;-68
2023/10/07 06:34:01;;;;;;;1.00;0.60;;;;;;;16.88;100.00;100885.88;6039134;23;20492;-69
2023/10/07 06:36:33;;;;;;;0.80;0.40;;;;;;;16.89;99.67;100882.09;6039371;23;20758;-67
2023/10/07 06:39:07;;;;;;;1.10;0.83;;;;;;;16.86;100.00;100894.31;6039004;23;20749;-67
2023/10/07 06:41:38;;;;;;;0.80;0.57;;;;;;;16.97;99.48;100908.19;6039028;23;20509;-69
2023/10/07 06:44:09;;;;;;;0.80;0.40;;;;;;;16.89;100.00;100898.47;6038739;23;20380;-68
2023/10/07 06:46:41;;;;;;;0.80;0.40;;;;;;;16.89;100.00;100903.94;6038659;23;20369;-69
2023/10/07 06:49:17;;;;;;;0.80;0.40;;;;;;;16.95;99.70;100905.69;6038593;23;20468;-69
2023/10/07 06:51:51;;;;;;;1.53;1.43;;;;;;;16.93;99.60;100900.47;6038891;23;20409;-68
2023/10/07 06:54:20;;;;;;;0.90;0.53;;;;;;;16.99;99.57;100906.06;6038474;23;20388;-69
2023/10/07 06:56:50;;;;;;;0.80;0.50;;;;;;;17.08;99.22;100910.06;6038991;23;20685;-69
2023/10/07 06:59:27;;;;;;;1.30;0.70;;;;;;;17.01;98.96;100906.63;6040785;23;20902;-70
2023/10/07 07:01:56;;;;;;;0.80;0.40;;;;;;;17.06;98.96;100912.19;6041864;23;20807;-69
2023/10/07 07:04:27;;;;;;;0.90;0.70;;;;;;;17.08;99.01;100910.06;6038480;23;20364;-69
2023/10/07 07:07:10;;;;;;;0.90;0.70;;;;;;;17.07;100.00;100914.69;6038292;23;20408;-67
2023/10/07 07:09:50;;;;;;;0.80;0.40;;;;;;;17.04;100.00;100914.34;6038517;23;20412;-68
2023/10/07 07:12:21;;;;;;;0.80;0.40;;;;;;;16.98;100.00;100920.78;6038994;23;20450;-66
2023/10/07 07:14:53;;;;;;;6.50;0.60;;;;;;;17.00;100.00;100921.34;6040063;23;20427;-70
2023/10/07 07:17:35;;;;;;;0.80;0.50;;;;;;;16.95;100.00;100925.66;6041075;23;20392;-69
2023/10/07 07:22:58;;;;;;;0.80;0.40;;;;;;;16.93;100.00;100921.53;6038207;23;20476;-69
2023/10/07 07:25:39;;;;;;;0.90;0.50;;;;;;;17.05;100.00;100922.28;6039247;23;20353;-68
2023/10/07 07:28:13;;;;;;;0.80;0.40;;;;;;;17.12;100.00;100927.63;6038140;23;20647;-68
2023/10/07 07:30:43;;;;;;;1.03;0.50;;;;;;;17.25;100.00;100919.09;6038214;23;20771;-67
2023/10/07 07:33:13;;;;;;;0.80;0.50;;;;;;;17.22;100.00;100923.19;6038044;23;20375;-69
2023/10/07 07:35:44;;;;;;;0.80;0.40;;;;;;;17.22;100.00;100919.63;6038619;23;20345;-68
2023/10/07 07:38:25;;;;;;;1.30;0.87;;;;;;;17.16;100.00;100921.41;6038259;23;20348;-68
2023/10/07 07:41:09;;;;;;;0.80;0.47;;;;;;;17.21;100.00;100923.41;6038083;23;20400;-68
2023/10/07 07:43:40;;;;;;;0.90;0.60;;;;;;;17.19;100.00;100939.22;6038313;23;20372;-68
2023/10/07 07:46:28;;;;;;;0.90;0.50;;;;;;;17.28;100.00;100932.31;6038393;23;20381;-67
2023/10/07 07:49:06;;;;;;;1.00;0.60;;;;;;;17.12;100.00;100933.09;6038005;23;20641;-69
2023/10/07 07:51:39;;;;;;;0.80;0.50;;;;;;;17.14;100.00;100939.13;6038046;23;20409;-68
2023/10/07 07:54:10;;;;;;;0.80;0.40;;;;;;;17.15;100.00;100924.38;6037923;23;20447;-68
2023/10/07 07:56:42;;;;;;;0.80;0.50;;;;;;;17.14;100.00;100909.88;6037995;23;20377;-71
2023/10/07 07:59:14;;;;;;;0.80;0.40;;;;;;;17.20;100.00;100910.81;6038200;23;20829;-69
2023/10/07 08:01:46;;;;;;;0.80;0.47;;;;;;;17.24;100.00;100921.00;6018586;23;20412;-70
2023/10/07 08:04:19;;;;;;;1.10;0.60;;;;;;;17.27;100.00;100925.19;6041994;23;20671;-70
2023/10/07 08:06:49;;;;;;;0.80;0.40;;;;;;;17.31;100.00;100938.13;6041816;23;20397;-68
2023/10/07 08:09:21;;;;;;;0.80;0.40;;;;;;;17.33;100.00;100944.16;6014143;23;20732;-67
2023/10/07 08:11:50;;;;;;;0.80;0.40;;;;;;;17.28;100.00;100941.31;6038296;23;20475;-69
2023/10/07 08:14:22;;;;;;;0.80;0.40;;;;;;;17.24;100.00;100945.63;6038027;23;20580;-69
2023/10/07 08:16:53;;;;;;;0.83;0.47;;;;;;;17.26;100.00;100939.91;6037816;23;20378;-67
2023/10/07 08:19:24;;;;;;;1.20;0.70;;;;;;;17.18;100.00;100940.31;6038487;23;20380;-66
2023/10/07 08:21:53;;;;;;;0.80;0.40;;;;;;;17.18;100.00;100943.06;6038049;23;20409;-69
2023/10/07 08:24:30;;;;;;;0.80;0.40;;;;;;;17.16;100.00;100954.22;6038336;23;20351;-69
2023/10/07 08:27:03;;;;;;;0.90;0.73;;;;;;;17.15;100.00;100951.72;6037919;23;20378;-70
2023/10/07 08:29:34;;;;;;;2.90;0.70;;;;;;;17.16;100.00;100940.56;6037963;23;20650;-71
2023/10/07 08:32:34;;;;;;;0.80;0.40;;;;;;;17.07;100.00;100950.22;6038084;23;20493;-68
2023/10/07 08:34:59;;;;;;;1.10;0.53;;;;;;;17.09;100.00;100950.78;6013326;23;20780;-66
2023/10/07 08:37:32;;;;;;;0.80;0.50;;;;;;;16.99;100.00;100944.31;6039906;23;20862;-69
2023/10/07 08:40:11;;;;;;;1.43;0.70;;;;;;;17.03;100.00;100946.31;6040062;23;20721;-69
2023/10/07 08:42:45;;;;;;;0.80;0.50;;;;;;;16.97;100.00;100944.56;6040134;23;20384;-69
2023/10/07 08:45:23;;;;;;;0.80;0.50;;;;;;;17.08;100.00;100940.97;6040152;23;20489;-69
2023/10/07 08:47:53;;;;;;;0.80;0.40;;;;;;;17.14;100.00;100950.91;6040178;23;20888;-68
2023/10/07 08:50:23;;;;;;;0.90;0.60;;;;;;;17.31;100.00;100940.84;6039885;23;20445;-68
2023/10/07 08:53:05;;;;;;;0.90;0.50;;;;;;;17.39;100.00;100929.50;6039984;23;20409;-70
2023/10/07 08:55:36;;;;;;;0.90;0.60;;;;;;;17.36;100.00;100921.78;6014496;23;20411;-67
2023/10/07 08:58:05;;;;;;;1.10;0.70;;;;;;;17.36;100.00;100926.44;6039925;23;20385;-70
2023/10/07 09:00:39;;;;;;;0.80;0.40;;;;;;;17.28;100.00;100926.84;6039737;23;20397;-67
2023/10/07 09:03:14;;;;;;;0.80;0.50;;;;;;;17.33;100.00;100929.69;6039559;23;20418;-69
2023/10/07 09:05:44;;;;;;;0.80;0.40;;;;;;;17.35;100.00;100931.06;6039349;23;20373;-69
2023/10/07 09:08:15;;;;;;;0.80;0.50;;;;;;;17.32;100.00;100925.28;6039560;23;20719;-69
2023/10/07 09:10:45;;;;;;;0.80;0.40;;;;;;;17.31;100.00;100921.69;6039834;23;20921;-69
2023/10/07 09:13:26;;;;;;;0.80;0.40;;;;;;;17.27;100.00;100923.28;6039701;23;20378;-69
2023/10/07 09:15:59;;;;;;;0.80;0.40;;;;;;;17.33;100.00;100922.28;6014627;23;20459;-69
2023/10/07 09:18:32;;;;;;;0.80;0.50;;;;;;;17.33;100.00;100926.94;6039839;23;20352;-66
2023/10/07 09:21:06;;;;;;;1.53;1.23;;;;;;;17.32;100.00;100926.09;6039354;23;20384;-66
2023/10/07 09:23:43;;;;;;;0.80;0.40;;;;;;;17.35;100.00;100919.28;6039514;23;20381;-69
2023/10/07 09:26:21;;;;;;;1.00;0.73;;;;;;;17.35;100.00;100927.50;6040073;23;20464;-70
2023/10/07 09:28:59;;;;;;;0.90;0.60;;;;;;;17.33;100.00;100919.53;6039561;23;20344;-68
2023/10/07 09:31:30;;;;;;;0.80;0.50;;;;;;;17.46;100.00;100917.59;6039573;23;20415;-66
2023/10/07 09:34:09;;;;;;;2.10;0.70;;;;;;;17.42;100.00;100930.09;6039485;23;20364;-69
2023/10/07 09:36:40;;;;;;;0.80;0.50;;;;;;;17.31;100.00;100923.59;6039730;23;20429;-69
2023/10/07 09:42:18;;;;;;;0.80;0.40;;;;;;;17.34;100.00;100934.03;6039718;23;20432;-69
2023/10/07 09:44:47;;;;;;;0.80;0.50;;;;;;;17.31;100.00;100923.59;6039738;23;20422;-69
2023/10/07 09:47:21;;;;;;;0.80;0.50;;;;;;;17.29;100.00;100914.81;6040175;23;20425;-69
2023/10/07 09:49:50;;;;;;;1.00;0.70;;;;;;;17.25;100.00;100913.63;6039883;23;20439;-69
2023/10/07 09:52:29;;;;;;;0.80;0.40;;;;;;;17.36;100.00;100926.44;6041038;23;20479;-68
2023/10/07 09:55:26;;;;;;;1.03;0.90;;;;;;;17.33;100.00;100927.75;6048579;23;20413;-69
2023/10/07 09:58:11;;;;;;;0.80;0.50;;;;;;;17.33;100.00;100926.94;6046111;23;20374;-70
2023/10/07 10:00:46;;;;;;;0.80;0.40;;;;;;;17.33;100.00;100929.69;6020252;23;20401;-69
2023/10/07 10:03:44;;;;;;;0.90;0.60;;;;;;;17.33;100.00;100930.47;6046064;23;20405;-69
2023/10/07 10:06:33;;;;;;;0.90;0.50;;;;;;;17.21;100.00;100928.88;6046599;23;20385;-72
2023/10/07 10:09:09;;;;;;;1.57;0.70;;;;;;;17.24;100.00;100922.91;6045853;23;20384;-69
2023/10/07 10:11:49;;;;;;;1.00;0.73;;;;;;;17.08;100.00;100921.00;6045671;23;20388;-68
2023/10/07 10:14:40;;;;;;;0.80;0.40;;;;;;;17.03;100.00;100934.56;6045544;23;20401;-71
2023/10/07 10:17:20;;;;;;;0.80;0.50;;;;;;;16.94;100.00;100918.53;6043720;23;20364;-69
2023/10/07 10:20:00;;;;;;;1.03;0.60;;;;;;;17.08;100.00;100910.06;6045333;23;20394;-70
2023/10/07 10:22:29;;;;;;;1.70;1.60;;;;;;;17.09;100.00;100911.72;6046260;23;20416;-70
2023/10/07 10:25:21;;;;;;;0.80;0.50;;;;;;;17.10;100.00;100922.38;6049191;23;20393;-73
2023/10/07 10:27:58;;;;;;;0.80;0.40;;;;;;;17.09;100.00;100909.78;6049075;23;20400;-70
2023/10/07 10:30:29;;;;;;;0.80;0.40;;;;;;;17.02;100.00;100908.28;6046204;23;20460;-68
2023/10/07 10:33:07;;;;;;;1.20;0.97;;;;;;;16.93;100.00;100897.75;6044138;23;20388;-70
2023/10/07 10:35:40;;;;;;;3.53;1.17;;;;;;;16.91;100.00;100896.31;6044248;23;20743;-69
2023/10/07 10:38:13;;;;;;;1.20;1.07;;;;;;;16.85;100.00;100898.13;6044256;23;20786;-71
2023/10/07 10:40:46;;;;;;;1.00;0.70;;;;;;;16.80;100.00;100900.75;6043865;23;20373;-68
2023/10/07 10:43:24;;;;;;;0.80;0.50;;;;;;;16.76;100.00;100899.59;6042199;23;20405;-70
2023/10/07 10:46:05;;;;;;;1.20;0.80;;;;;;;16.78;100.00;100905.66;6017267;23;20372;-69
2023/10/07 10:48:37;;;;;;;1.10;0.60;;;;;;;16.76;100.00;100902.31;6018938;23;20489;-70
2023/10/07 10:51:06;;;;;;;1.93;0.80;;;;;;;16.73;100.00;100891.88;6043539;23;20409;-68
2023/10/07 10:53:40;;;;;;;1.93;1.60;;;;;;;16.86;100.00;100891.59;6042383;23;20382;-68
2023/10/07 10:56:10;;;;;;;0.80;0.50;;;;;;;16.83;100.00;100892.09;6039102;23;20398;-67
2023/10/07 10:58:39;;;;;;;0.80;0.60;;;;;;;16.77;100.00;100890.31;6039233;23;20381;-69
2023/10/07 11:01:11;;;;;;;1.10;0.60;;;;;;;16.80;100.00;100873.41;6039816;23;20410;-68
2023/10/07 11:03:42;;;;;;;1.30;0.90;;;;;;;16.74;100.00;100874.41;6041354;23;20378;-70
2023/10/07 11:06:12;;;;;;;0.80;0.50;;;;;;;16.69;100.00;100868.84;6041746;23;20461;-70
2023/10/07 11:08:41;;;;;;;6.23;1.20;;;;;;;16.74;100.00;100868.13;6040379;23;20398;-69
2023/10/07 11:11:12;;;;;;;0.90;0.60;;;;;;;16.78;100.00;100864.66;6038414;23;20508;-68
2023/10/07 11:13:41;;;;;;;1.57;0.90;;;;;;;16.89;100.00;100861.03;6038581;23;20393;-69
2023/10/07 11:16:11;;;;;;;0.80;0.40;;;;;;;17.00;100.00;100863.94;6038173;23;20392;-70
2023/10/07 11:18:44;;;;;;;0.80;0.40;;;;;;;16.98;100.00;100846.97;6038480;23;20352;-69
2023/10/07 11:21:17;;;;;;;1.20;0.73;;;;;;;16.97;100.00;100862.53;6038857;23;20943;-69
2023/10/07 11:23:47;;;;;;;2.30;2.10;;;;;;;17.08;100.00;100860.84;6039000;23;21036;-69
2023/10/07 11:26:18;;;;;;;1.00;0.70;;;;;;;17.10;100.00;100875.06;6038895;23;20373;-70
2023/10/07 11:28:48;;;;;;;0.80;0.50;;;;;;;17.12;100.00;100864.72;6038452;23;20445;-70
2023/10/07 11:31:30;;;;;;;0.80;0.50;;;;;;;16.94;100.00;100861.13;6037040;23;20437;-70
2023/10/07 11:33:59;;;;;;;0.90;0.70;;;;;;;16.94;100.00;100860.31;6038097;23;20437;-69
2023/10/07 11:36:29;;;;;;;0.80;0.50;;;;;;;16.82;100.00;100859.53;6038449;23;20429;-68
2023/10/07 11:38:58;;;;;;;3.63;0.97;;;;;;;16.82;100.00;100854.88;6038533;23;20449;-69
2023/10/07 11:41:29;;;;;;;0.90;0.70;;;;;;;16.81;100.00;100864.16;6039259;23;20395;-69
2023/10/07 11:43:58;;;;;;;2.47;0.93;;;;;;;16.83;100.00;100856.56;6038421;23;20405;-67
2023/10/07 11:46:29;;;;;;;1.20;0.60;;;;;;;16.79;100.00;100844.47;6039482;23;20730;-68
2023/10/07 11:49:01;;;;;;;0.80;0.50;;;;;;;16.93;100.00;100850.44;6039407;23;20444;-73
2023/10/07 11:51:32;;;;;;;2.70;0.67;;;;;;;16.90;100.00;100840.81;6039922;23;20425;-70
2023/10/07 11:54:01;;;;;;;3.57;1.20;;;;;;;16.94;100.00;100836.50;6039662;23;20408;-70
2023/10/07 11:56:30;;;;;;;0.80;0.50;;;;;;;17.00;100.00;100833.88;6038599;23;20453;-71
2023/10/07 11:58:59;;;;;;;4.00;1.00;;;;;;;16.85;100.00;100848.09;6039190;23;20932;-70
2023/10/07 12:01:30;;;;;;;0.97;0.80;;;;;;;16.80;100.00;100850.72;6038694;23;20388;-67